地図

経路データ

SID SEASON NUMBER BASIN SUBBASIN NAME ISO_TIME NATURE LAT LON WMO_WIND WMO_PRES WMO_AGENCY TRACK_TYPE DIST2LAND LANDFALL IFLAG USA_AGENCY USA_ATCF_ID USA_LAT USA_LON USA_RECORD USA_STATUS USA_WIND USA_PRES USA_SSHS USA_R34_NE USA_R34_SE USA_R34_SW USA_R34_NW USA_R50_NE USA_R50_SE USA_R50_SW USA_R50_NW USA_R64_NE USA_R64_SE USA_R64_SW USA_R64_NW USA_POCI USA_ROCI USA_RMW USA_EYE TOKYO_LAT TOKYO_LON TOKYO_GRADE TOKYO_WIND TOKYO_PRES TOKYO_R50_DIR TOKYO_R50_LONG TOKYO_R50_SHORT TOKYO_R30_DIR TOKYO_R30_LONG TOKYO_R30_SHORT TOKYO_LAND CMA_LAT CMA_LON CMA_CAT CMA_WIND CMA_PRES HKO_LAT HKO_LON HKO_CAT HKO_WIND HKO_PRES NEWDELHI_LAT NEWDELHI_LON NEWDELHI_GRADE NEWDELHI_WIND NEWDELHI_PRES NEWDELHI_CI NEWDELHI_DP NEWDELHI_POCI REUNION_LAT REUNION_LON REUNION_TYPE REUNION_WIND REUNION_PRES REUNION_TNUM REUNION_CI REUNION_RMW REUNION_R34_NE REUNION_R34_SE REUNION_R34_SW REUNION_R34_NW REUNION_R50_NE REUNION_R50_SE REUNION_R50_SW REUNION_R50_NW REUNION_R64_NE REUNION_R64_SE REUNION_R64_SW REUNION_R64_NW BOM_LAT BOM_LON BOM_TYPE BOM_WIND BOM_PRES BOM_TNUM BOM_CI BOM_RMW BOM_R34_NE BOM_R34_SE BOM_R34_SW BOM_R34_NW BOM_R50_NE BOM_R50_SE BOM_R50_SW BOM_R50_NW BOM_R64_NE BOM_R64_SE BOM_R64_SW BOM_R64_NW BOM_ROCI BOM_POCI BOM_EYE BOM_POS_METHOD BOM_PRES_METHOD NADI_LAT NADI_LON NADI_CAT NADI_WIND NADI_PRES WELLINGTON_LAT WELLINGTON_LON WELLINGTON_WIND WELLINGTON_PRES DS824_LAT DS824_LON DS824_STAGE DS824_WIND DS824_PRES TD9636_LAT TD9636_LON TD9636_STAGE TD9636_WIND TD9636_PRES TD9635_LAT TD9635_LON TD9635_WIND TD9635_PRES TD9635_ROCI NEUMANN_LAT NEUMANN_LON NEUMANN_CLASS NEUMANN_WIND NEUMANN_PRES MLC_LAT MLC_LON MLC_CLASS MLC_WIND MLC_PRES USA_GUST BOM_GUST BOM_GUST_PER REUNION_GUST REUNION_GUST_PER USA_SEAHGT USA_SEARAD_NE USA_SEARAD_SE USA_SEARAD_SW USA_SEARAD_NW STORM_SPEED STORM_DIR
1973121S06079 1973 48 SI MM NOT_NAMED 1973-05-01 06:00:00 TS -6.00000 78.8000 main 1348 1348 O________O____ jtwc_sh SH361973 -6.00000 78.8000 -1 -6.00000 78.8000 TC 16 205
1973121S06079 1973 48 SI MM NOT_NAMED 1973-05-01 09:00:00 TS -6.73510 78.4628 main 1431 1431 P________P____ SH361973 -6.73510 78.4628 -1 -6.73510 78.4628 TC 15 203
1973121S06079 1973 48 SI MM NOT_NAMED 1973-05-01 12:00:00 TS -7.40000 78.2000 main 1514 1514 O________O____ jtwc_sh SH361973 -7.40000 78.2000 -1 -7.40000 78.2000 TC 13 198
1973121S06079 1973 48 SI MM NOT_NAMED 1973-05-01 15:00:00 TS -7.93242 78.0749 main 1571 1571 P________P____ SH361973 -7.93242 78.0749 -1 -7.93242 78.0749 TC 7 0
1973121S06079 1973 48 SI MM NOT_NAMED 1973-05-01 18:00:00 TS -8.04445 78.1778 main 1580 1580 O________OO___ jtwc_sh SH361973 -8.30000 78.1000 -1 -8.30000 78.1000 TC 35 -6.00000 78.8000 7 3 131
1973121S06079 1973 48 SI MM NOT_NAMED 1973-05-01 21:00:00 TS -8.13321 78.3082 main 1589 1589 P________PP___ SH361973 -8.49500 78.2550 -1 -8.49500 78.2550 TC 35 -6.68603 78.5213 7 3 129
1973121S06079 1973 48 SI MM NOT_NAMED 1973-05-02 00:00:00 TS -8.25300 78.4410 main 1609 1608 O________OP___ jtwc_sh SH361973 -8.60000 78.5000 -1 -8.60000 78.5000 TC 35 -7.32765 78.2836 7 4 144
1973121S06079 1973 48 SI MM NOT_NAMED 1973-05-02 03:00:00 TS -8.46015 78.5480 main 1630 1628 P________PP___ SH361973 -8.75002 78.7575 -1 -8.75002 78.7575 TC 35 -7.88040 78.1290 7 5 150
1973121S06079 1973 48 SI MM NOT_NAMED 1973-05-02 06:00:00 TS -8.70000 78.7000 main 1649 1649 O________OO___ jtwc_sh SH361973 -8.90000 79.0000 -1 -8.90000 79.0000 TC 35 -8.30000 78.1000 2 5 144
1973121S06079 1973 48 SI MM NOT_NAMED 1973-05-02 09:00:00 TS -8.87166 78.8507 main 1669 1669 P________PP___ SH361973 -9.02747 79.1651 -1 -9.02747 79.1651 TC 35 -8.56003 78.2219 2 5 137
1973121S06079 1973 48 SI MM NOT_NAMED 1973-05-02 12:00:00 TS -9.03503 79.0174 main 1679 1679 O________OP___ jtwc_sh SH361973 -9.20000 79.3000 -1 -9.20000 79.3000 TC 35 -8.70510 78.4522 2 5 135
1973121S06079 1973 48 SI MM NOT_NAMED 1973-05-02 15:00:00 TS -9.19207 79.1793 main 1699 1699 P________PP___ SH361973 -9.41749 79.4352 -1 -9.47003 79.4449 TC 35 -8.79760 78.7315 2 5 140
1973121S06079 1973 48 SI MM NOT_NAMED 1973-05-02 18:00:00 TS -9.40000 79.3333 main 1720 1719 O________OO___ jtwc_sh SH361973 -9.80000 79.6000 -1 -9.80000 79.6000 TC 35 -8.90000 79.0000 2 5 147
1973121S06079 1973 48 SI MM NOT_NAMED 1973-05-02 21:00:00 TS -9.61002 79.4470 main 1741 1741 P_________P___ SH361973 -10.4276 79.8296 -1 TC -9.00999 79.1559 2 2 144
1973121S06079 1973 48 SI MM NOT_NAMED 1973-05-03 00:00:00 NR -9.56401 79.4548 main 1741 1719 O_________P___ jtwc_sh SH361973 -11.2000 80.1000 -1 -9.15501 79.2935 2 2 356
1973121S06079 1973 48 SI MM NOT_NAMED 1973-05-03 03:00:00 NR -9.39751 79.4343 main 1719 1718 __________P___ SH361973 -1 -9.39751 79.4343 2 3 148
1973121S06079 1973 48 SI MM NOT_NAMED 1973-05-03 06:00:00 NR -9.80000 79.6000 main 1762 1762 __________O___ -1 -9.80000 79.6000 2 11 158
1973121S06079 1973 48 SI MM NOT_NAMED 1973-05-03 09:00:00 NR -10.4108 79.8449 main 1828 1828 __________P___ -1 -10.4108 79.8449 2 15 160
1973121S06079 1973 48 SI MM NOT_NAMED 1973-05-03 12:00:00 NR -11.1833 80.1140 main 1916 1916 __________P___ -1 -11.1833 80.1140 2 17 162
1973121S06079 1973 48 SI MM NOT_NAMED 1973-05-03 15:00:00 NR -12.0640 80.3762 main 2016 2016 __________P___ -1 -12.0640 80.3762 2 19 165
1973121S06079 1973 48 SI MM NOT_NAMED 1973-05-03 18:00:00 NR -13.0000 80.6000 main 2117 2117 __________O___ -1 -13.0000 80.6000 2 20 169
1973121S06079 1973 48 SI MM NOT_NAMED 1973-05-03 21:00:00 NR -13.9675 80.7556 main 2229 2229 __________P___ -1 -13.9675 80.7556 2 20 172
1973121S06079 1973 48 SI MM NOT_NAMED 1973-05-04 00:00:00 NR -14.9672 80.8678 main 2341 2341 __________P___ -1 -14.9672 80.8678 2 20 175
1973121S06079 1973 48 SI MM NOT_NAMED 1973-05-04 03:00:00 NR -15.9333 80.9461 main 2442 2442 __________P___ -1 -15.9333 80.9461 2 19 176
1973121S06079 1973 48 SI MM NOT_NAMED 1973-05-04 06:00:00 NR -16.8000 81.0000 main 2474 2458 __________O___ -1 -16.8000 81.0000 2 16 177
1973121S06079 1973 48 SI MM NOT_NAMED 1973-05-04 09:00:00 NR -17.4865 81.0392 main 2458 2452 __________P___ -1 -17.4865 81.0392 2 13 177
1973121S06079 1973 48 SI MM NOT_NAMED 1973-05-04 12:00:00 NR -18.0696 81.0585 main 2457 2448 __________P___ -1 -18.0696 81.0585 2 11 178
1973121S06079 1973 48 SI MM NOT_NAMED 1973-05-04 15:00:00 NR -18.5928 81.0735 main 2448 2440 __________P___ -1 -18.5928 81.0735 2 10 178
1973121S06079 1973 48 SI MM NOT_NAMED 1973-05-04 18:00:00 NR -19.1000 81.1000 main 2440 2434 __________O___ -1 -19.1000 81.1000 2 11 178
1973121S06079 1973 48 SI MM NOT_NAMED 1973-05-04 21:00:00 NR -19.6406 81.1094 main 2434 2429 __________P___ -1 -19.6406 81.1094 2 11 178
1973121S06079 1973 48 SI MM NOT_NAMED 1973-05-05 00:00:00 NR -20.1769 81.1401 main 2428 2427 __________P___ -1 -20.1769 81.1401 2 11 174
1973121S06079 1973 48 SI MM NOT_NAMED 1973-05-05 03:00:00 NR -20.7248 81.2256 main 2435 2434 __________P___ -1 -20.7248 81.2256 2 12 168
1973121S06079 1973 48 SI MM NOT_NAMED 1973-05-05 06:00:00 NR -21.3000 81.4000 main 2453 2452 __________O___ -1 -21.3000 81.4000 2 13 161
1973121S06079 1973 48 SI MM NOT_NAMED 1973-05-05 09:00:00 NR -21.9457 81.6892 main 2482 2482 __________P___ -1 -21.9457 81.6892 2 15 155
1973121S06079 1973 48 SI MM NOT_NAMED 1973-05-05 12:00:00 NR -22.6151 82.0712 main 2524 2524 __________P___ -1 -22.6151 82.0712 2 15 150
1973121S06079 1973 48 SI MM NOT_NAMED 1973-05-05 15:00:00 NR -23.2769 82.5178 main 2568 2568 __________P___ -1 -23.2769 82.5178 2 15 146
1973121S06079 1973 48 SI MM NOT_NAMED 1973-05-05 18:00:00 NR -23.9000 83.0000 main 2622 2622 __________O___ -1 -23.9000 83.0000 2 15 143
1973121S06079 1973 48 SI MM NOT_NAMED 1973-05-05 21:00:00 NR -24.4616 83.4929 main 2678 2678 __________P___ -1 -24.4616 83.4929 2 14 140
1973121S06079 1973 48 SI MM NOT_NAMED 1973-05-06 00:00:00 NR -24.9709 83.9909 main 2733 2733 __________P___ -1 -24.9709 83.9909 2 13 137
1973121S06079 1973 48 SI MM NOT_NAMED 1973-05-06 03:00:00 NR -25.4448 84.4934 main 2788 2788 __________P___ -1 -25.4448 84.4934 2 13 136
1973121S06079 1973 48 SI MM NOT_NAMED 1973-05-06 06:00:00 NR -25.9000 85.0000 main 2818 __________O___ -1 -25.9000 85.0000 1 13 135

IBTrACS Databaseについて

本データベースは、米国NOAAが公開する1842年以降の世界の熱帯低気圧のベストトラックデータアーカイブInternational Best Track Archive for Climate Stewardship (IBTrACS)を、ウェブで閲覧しやすい形式に変換したものです。

最終更新日:2021-10-27